sensor_id;sensor_type;location;lat;lon;timestamp;temperature;humidity
19968;DHT22;10145;49.152;9.282;2023-04-06T00:00:23;-0.40;99.90
19968;DHT22;10145;49.152;9.282;2023-04-06T00:02:48;-0.40;99.90
19968;DHT22;10145;49.152;9.282;2023-04-06T00:05:14;-0.40;99.90
19968;DHT22;10145;49.152;9.282;2023-04-06T00:07:40;-0.40;99.90
19968;DHT22;10145;49.152;9.282;2023-04-06T00:10:06;-0.40;99.90
19968;DHT22;10145;49.152;9.282;2023-04-06T00:12:32;-0.30;99.90
19968;DHT22;10145;49.152;9.282;2023-04-06T00:14:57;-0.40;99.90
19968;DHT22;10145;49.152;9.282;2023-04-06T00:17:23;-0.40;99.90
19968;DHT22;10145;49.152;9.282;2023-04-06T00:19:48;-0.50;99.90
19968;DHT22;10145;49.152;9.282;2023-04-06T00:22:14;-0.40;99.90
19968;DHT22;10145;49.152;9.282;2023-04-06T00:24:39;-0.40;99.90
19968;DHT22;10145;49.152;9.282;2023-04-06T00:27:05;-0.40;99.90
19968;DHT22;10145;49.152;9.282;2023-04-06T00:29:31;-0.50;99.90
19968;DHT22;10145;49.152;9.282;2023-04-06T00:31:56;-0.50;99.90
19968;DHT22;10145;49.152;9.282;2023-04-06T00:34:22;-0.60;99.90
19968;DHT22;10145;49.152;9.282;2023-04-06T00:36:47;-0.70;99.90
19968;DHT22;10145;49.152;9.282;2023-04-06T00:39:13;-0.70;99.90
19968;DHT22;10145;49.152;9.282;2023-04-06T00:41:39;-0.80;99.90
19968;DHT22;10145;49.152;9.282;2023-04-06T00:44:09;-0.80;99.90
19968;DHT22;10145;49.152;9.282;2023-04-06T00:46:35;-0.70;99.90
19968;DHT22;10145;49.152;9.282;2023-04-06T00:49:01;-0.70;99.90
19968;DHT22;10145;49.152;9.282;2023-04-06T00:51:27;-0.60;99.90
19968;DHT22;10145;49.152;9.282;2023-04-06T00:53:53;-0.50;99.90
19968;DHT22;10145;49.152;9.282;2023-04-06T00:56:18;-0.60;99.90
19968;DHT22;10145;49.152;9.282;2023-04-06T00:58:44;-0.60;99.90
19968;DHT22;10145;49.152;9.282;2023-04-06T01:01:09;-0.70;99.90
19968;DHT22;10145;49.152;9.282;2023-04-06T01:03:35;-0.80;99.90
19968;DHT22;10145;49.152;9.282;2023-04-06T01:06:01;-0.90;99.90
19968;DHT22;10145;49.152;9.282;2023-04-06T01:08:27;-0.90;99.90
19968;DHT22;10145;49.152;9.282;2023-04-06T01:10:52;-0.80;99.90
19968;DHT22;10145;49.152;9.282;2023-04-06T01:13:18;-0.80;99.90
19968;DHT22;10145;49.152;9.282;2023-04-06T01:15:43;-0.80;99.90
19968;DHT22;10145;49.152;9.282;2023-04-06T01:18:09;-0.90;99.90
19968;DHT22;10145;49.152;9.282;2023-04-06T01:20:36;-0.90;99.90
19968;DHT22;10145;49.152;9.282;2023-04-06T01:23:01;-0.80;99.90
19968;DHT22;10145;49.152;9.282;2023-04-06T01:25:27;-0.80;99.90
19968;DHT22;10145;49.152;9.282;2023-04-06T01:27:52;-1.00;99.90
19968;DHT22;10145;49.152;9.282;2023-04-06T01:30:18;-0.90;99.90
19968;DHT22;10145;49.152;9.282;2023-04-06T01:32:45;-1.00;99.90
19968;DHT22;10145;49.152;9.282;2023-04-06T01:35:10;-1.10;99.90
19968;DHT22;10145;49.152;9.282;2023-04-06T01:37:36;-1.10;99.90
19968;DHT22;10145;49.152;9.282;2023-04-06T01:40:02;-1.10;99.90
19968;DHT22;10145;49.152;9.282;2023-04-06T01:42:28;-1.10;99.90
19968;DHT22;10145;49.152;9.282;2023-04-06T01:44:53;-1.00;99.90
19968;DHT22;10145;49.152;9.282;2023-04-06T01:47:19;-0.90;99.90
19968;DHT22;10145;49.152;9.282;2023-04-06T01:49:44;-1.10;99.90
19968;DHT22;10145;49.152;9.282;2023-04-06T01:52:10;-1.10;99.90
19968;DHT22;10145;49.152;9.282;2023-04-06T01:54:36;-1.10;99.90
19968;DHT22;10145;49.152;9.282;2023-04-06T01:57:01;-1.20;99.90
19968;DHT22;10145;49.152;9.282;2023-04-06T01:59:27;-1.20;99.90
19968;DHT22;10145;49.152;9.282;2023-04-06T02:01:52;-1.40;99.90
19968;DHT22;10145;49.152;9.282;2023-04-06T02:04:18;-1.40;99.90
19968;DHT22;10145;49.152;9.282;2023-04-06T02:06:44;-1.40;99.90
19968;DHT22;10145;49.152;9.282;2023-04-06T02:09:09;-1.40;99.90
19968;DHT22;10145;49.152;9.282;2023-04-06T02:11:35;-1.30;99.90
19968;DHT22;10145;49.152;9.282;2023-04-06T02:14:00;-1.20;99.90
19968;DHT22;10145;49.152;9.282;2023-04-06T02:16:26;-1.10;99.90
19968;DHT22;10145;49.152;9.282;2023-04-06T02:18:52;-1.10;99.90
19968;DHT22;10145;49.152;9.282;2023-04-06T02:21:17;-0.90;99.90
19968;DHT22;10145;49.152;9.282;2023-04-06T02:23:46;-0.80;99.90
19968;DHT22;10145;49.152;9.282;2023-04-06T02:26:12;-0.80;99.90
19968;DHT22;10145;49.152;9.282;2023-04-06T02:28:37;-0.80;99.90
19968;DHT22;10145;49.152;9.282;2023-04-06T02:31:03;-0.80;99.90
19968;DHT22;10145;49.152;9.282;2023-04-06T02:33:28;-0.70;99.90
19968;DHT22;10145;49.152;9.282;2023-04-06T02:35:54;-0.70;99.90
19968;DHT22;10145;49.152;9.282;2023-04-06T02:38:20;-0.70;99.90
19968;DHT22;10145;49.152;9.282;2023-04-06T02:40:45;-0.70;99.90
19968;DHT22;10145;49.152;9.282;2023-04-06T02:43:11;-0.60;99.90
19968;DHT22;10145;49.152;9.282;2023-04-06T02:45:36;-0.60;99.90
19968;DHT22;10145;49.152;9.282;2023-04-06T02:48:02;-0.60;99.90
19968;DHT22;10145;49.152;9.282;2023-04-06T02:50:27;-0.60;99.90
19968;DHT22;10145;49.152;9.282;2023-04-06T02:52:53;-0.60;99.90
19968;DHT22;10145;49.152;9.282;2023-04-06T02:55:19;-0.70;99.90
19968;DHT22;10145;49.152;9.282;2023-04-06T02:57:45;-0.80;99.90
19968;DHT22;10145;49.152;9.282;2023-04-06T03:00:11;-0.90;99.90
19968;DHT22;10145;49.152;9.282;2023-04-06T03:02:38;-0.80;99.90
19968;DHT22;10145;49.152;9.282;2023-04-06T03:05:04;-0.90;99.90
19968;DHT22;10145;49.152;9.282;2023-04-06T03:07:29;-0.90;99.90
19968;DHT22;10145;49.152;9.282;2023-04-06T03:09:55;-1.00;99.90
19968;DHT22;10145;49.152;9.282;2023-04-06T03:12:21;-1.00;99.90
19968;DHT22;10145;49.152;9.282;2023-04-06T03:14:46;-1.00;99.90
19968;DHT22;10145;49.152;9.282;2023-04-06T03:17:12;-1.10;99.90
19968;DHT22;10145;49.152;9.282;2023-04-06T03:19:37;-1.10;99.90
19968;DHT22;10145;49.152;9.282;2023-04-06T03:22:03;-1.10;99.90
19968;DHT22;10145;49.152;9.282;2023-04-06T03:24:28;-1.20;99.90
19968;DHT22;10145;49.152;9.282;2023-04-06T03:26:54;-1.30;99.90
19968;DHT22;10145;49.152;9.282;2023-04-06T03:29:20;-1.30;99.90
19968;DHT22;10145;49.152;9.282;2023-04-06T03:31:48;-1.40;99.90
19968;DHT22;10145;49.152;9.282;2023-04-06T03:34:14;-1.40;99.90
19968;DHT22;10145;49.152;9.282;2023-04-06T03:36:40;-1.40;99.90
19968;DHT22;10145;49.152;9.282;2023-04-06T03:39:05;-1.30;99.90
19968;DHT22;10145;49.152;9.282;2023-04-06T03:41:31;-1.20;99.90
19968;DHT22;10145;49.152;9.282;2023-04-06T03:43:56;-1.40;99.90
19968;DHT22;10145;49.152;9.282;2023-04-06T03:46:22;-1.50;99.90
19968;DHT22;10145;49.152;9.282;2023-04-06T03:48:48;-1.40;99.90
19968;DHT22;10145;49.152;9.282;2023-04-06T03:51:14;-1.50;99.90
19968;DHT22;10145;49.152;9.282;2023-04-06T03:53:39;-1.60;99.90
19968;DHT22;10145;49.152;9.282;2023-04-06T03:56:05;-1.70;99.90
19968;DHT22;10145;49.152;9.282;2023-04-06T03:58:31;-1.60;99.90
19968;DHT22;10145;49.152;9.282;2023-04-06T04:00:56;-1.70;99.90
19968;DHT22;10145;49.152;9.282;2023-04-06T04:03:22;-1.70;99.90
19968;DHT22;10145;49.152;9.282;2023-04-06T04:05:49;-1.60;99.90
19968;DHT22;10145;49.152;9.282;2023-04-06T04:08:15;-1.50;99.90
19968;DHT22;10145;49.152;9.282;2023-04-06T04:10:41;-1.50;99.90
19968;DHT22;10145;49.152;9.282;2023-04-06T04:13:06;-1.40;99.90
19968;DHT22;10145;49.152;9.282;2023-04-06T04:15:32;-1.40;99.90
19968;DHT22;10145;49.152;9.282;2023-04-06T04:17:57;-1.50;99.90
19968;DHT22;10145;49.152;9.282;2023-04-06T04:20:23;-1.70;99.90
19968;DHT22;10145;49.152;9.282;2023-04-06T04:22:48;-1.60;99.90
19968;DHT22;10145;49.152;9.282;2023-04-06T04:25:14;-1.50;99.90
19968;DHT22;10145;49.152;9.282;2023-04-06T04:27:39;-1.60;99.90
19968;DHT22;10145;49.152;9.282;2023-04-06T04:30:06;-1.70;99.90
19968;DHT22;10145;49.152;9.282;2023-04-06T04:32:31;-1.60;99.90
19968;DHT22;10145;49.152;9.282;2023-04-06T04:34:57;-1.70;99.90
19968;DHT22;10145;49.152;9.282;2023-04-06T04:37:22;-1.80;99.90
19968;DHT22;10145;49.152;9.282;2023-04-06T04:39:48;-1.70;99.90
19968;DHT22;10145;49.152;9.282;2023-04-06T04:42:13;-1.70;99.90
19968;DHT22;10145;49.152;9.282;2023-04-06T04:44:39;-1.60;99.90
19968;DHT22;10145;49.152;9.282;2023-04-06T04:47:05;-1.60;99.90
19968;DHT22;10145;49.152;9.282;2023-04-06T04:49:30;-1.60;99.90
19968;DHT22;10145;49.152;9.282;2023-04-06T04:51:56;-1.60;99.90
19968;DHT22;10145;49.152;9.282;2023-04-06T04:54:22;-1.80;99.90
19968;DHT22;10145;49.152;9.282;2023-04-06T04:56:47;-1.70;99.90
19968;DHT22;10145;49.152;9.282;2023-04-06T04:59:13;-1.60;99.90
19968;DHT22;10145;49.152;9.282;2023-04-06T05:01:38;-1.50;99.90
19968;DHT22;10145;49.152;9.282;2023-04-06T05:04:04;-1.60;99.90
19968;DHT22;10145;49.152;9.282;2023-04-06T05:06:29;-1.70;99.90
19968;DHT22;10145;49.152;9.282;2023-04-06T05:08:55;-1.70;99.90
19968;DHT22;10145;49.152;9.282;2023-04-06T05:11:21;-1.60;99.90
19968;DHT22;10145;49.152;9.282;2023-04-06T05:13:46;-1.60;99.90
19968;DHT22;10145;49.152;9.282;2023-04-06T05:16:12;-1.50;99.90
19968;DHT22;10145;49.152;9.282;2023-04-06T05:18:38;-1.40;99.90
19968;DHT22;10145;49.152;9.282;2023-04-06T05:21:03;-1.20;99.90
19968;DHT22;10145;49.152;9.282;2023-04-06T05:23:29;-1.20;99.90
19968;DHT22;10145;49.152;9.282;2023-04-06T05:25:54;-1.20;99.90
19968;DHT22;10145;49.152;9.282;2023-04-06T05:28:20;-1.20;99.90
19968;DHT22;10145;49.152;9.282;2023-04-06T05:30:46;-1.20;99.90
19968;DHT22;10145;49.152;9.282;2023-04-06T05:33:11;-1.10;99.90
19968;DHT22;10145;49.152;9.282;2023-04-06T05:35:37;-1.10;99.90
19968;DHT22;10145;49.152;9.282;2023-04-06T05:38:03;-1.00;99.90
19968;DHT22;10145;49.152;9.282;2023-04-06T05:40:28;-1.00;99.90
19968;DHT22;10145;49.152;9.282;2023-04-06T05:42:54;-1.00;99.90
19968;DHT22;10145;49.152;9.282;2023-04-06T05:45:19;-0.90;99.90
19968;DHT22;10145;49.152;9.282;2023-04-06T05:47:46;-1.00;99.90
19968;DHT22;10145;49.152;9.282;2023-04-06T05:50:13;-1.00;99.90
19968;DHT22;10145;49.152;9.282;2023-04-06T05:52:38;-0.90;99.90
19968;DHT22;10145;49.152;9.282;2023-04-06T05:55:06;-0.90;99.90
19968;DHT22;10145;49.152;9.282;2023-04-06T05:57:32;-0.90;99.90
19968;DHT22;10145;49.152;9.282;2023-04-06T05:59:58;-0.70;99.90
19968;DHT22;10145;49.152;9.282;2023-04-06T06:02:23;-0.70;99.90
19968;DHT22;10145;49.152;9.282;2023-04-06T06:04:49;-0.70;99.90
19968;DHT22;10145;49.152;9.282;2023-04-06T06:07:15;-0.70;99.90
19968;DHT22;10145;49.152;9.282;2023-04-06T06:09:40;-0.60;99.90
19968;DHT22;10145;49.152;9.282;2023-04-06T06:12:06;-0.60;99.90
19968;DHT22;10145;49.152;9.282;2023-04-06T06:14:31;-0.60;99.90
19968;DHT22;10145;49.152;9.282;2023-04-06T06:16:57;-0.60;99.90
19968;DHT22;10145;49.152;9.282;2023-04-06T06:19:23;-0.50;99.90
19968;DHT22;10145;49.152;9.282;2023-04-06T06:21:48;-0.50;99.90
19968;DHT22;10145;49.152;9.282;2023-04-06T06:24:14;-0.40;99.90
19968;DHT22;10145;49.152;9.282;2023-04-06T06:26:40;-0.30;99.90
19968;DHT22;10145;49.152;9.282;2023-04-06T06:29:06;-0.20;99.90
19968;DHT22;10145;49.152;9.282;2023-04-06T06:31:32;-0.10;99.90
19968;DHT22;10145;49.152;9.282;2023-04-06T06:33:57;0.00;99.90
19968;DHT22;10145;49.152;9.282;2023-04-06T06:36:23;0.00;99.90
19968;DHT22;10145;49.152;9.282;2023-04-06T06:38:49;0.10;99.90
19968;DHT22;10145;49.152;9.282;2023-04-06T06:41:15;0.20;99.90
19968;DHT22;10145;49.152;9.282;2023-04-06T06:43:40;0.30;99.90
19968;DHT22;10145;49.152;9.282;2023-04-06T06:46:06;0.40;99.90
19968;DHT22;10145;49.152;9.282;2023-04-06T06:48:32;0.50;99.90
19968;DHT22;10145;49.152;9.282;2023-04-06T06:50:57;0.60;99.90
19968;DHT22;10145;49.152;9.282;2023-04-06T06:53:23;0.60;99.90
19968;DHT22;10145;49.152;9.282;2023-04-06T06:55:49;0.70;99.90
19968;DHT22;10145;49.152;9.282;2023-04-06T06:58:17;0.80;99.90
19968;DHT22;10145;49.152;9.282;2023-04-06T07:00:43;0.90;99.90
19968;DHT22;10145;49.152;9.282;2023-04-06T07:03:08;1.10;99.90
19968;DHT22;10145;49.152;9.282;2023-04-06T07:05:34;1.20;99.90
19968;DHT22;10145;49.152;9.282;2023-04-06T07:07:59;1.30;99.90
19968;DHT22;10145;49.152;9.282;2023-04-06T07:10:26;1.50;99.90
19968;DHT22;10145;49.152;9.282;2023-04-06T07:12:52;1.60;99.90
19968;DHT22;10145;49.152;9.282;2023-04-06T07:15:18;1.70;99.90
19968;DHT22;10145;49.152;9.282;2023-04-06T07:17:43;1.80;99.90
19968;DHT22;10145;49.152;9.282;2023-04-06T07:20:11;2.00;99.90
19968;DHT22;10145;49.152;9.282;2023-04-06T07:22:38;2.20;99.90
19968;DHT22;10145;49.152;9.282;2023-04-06T07:25:03;2.30;99.90
19968;DHT22;10145;49.152;9.282;2023-04-06T07:27:29;2.40;99.90
19968;DHT22;10145;49.152;9.282;2023-04-06T07:29:55;2.60;99.90
19968;DHT22;10145;49.152;9.282;2023-04-06T07:32:20;2.70;99.90
19968;DHT22;10145;49.152;9.282;2023-04-06T07:34:46;2.90;99.90
19968;DHT22;10145;49.152;9.282;2023-04-06T07:37:12;3.10;99.90
19968;DHT22;10145;49.152;9.282;2023-04-06T07:39:37;3.30;99.90
19968;DHT22;10145;49.152;9.282;2023-04-06T07:42:03;3.40;99.90
19968;DHT22;10145;49.152;9.282;2023-04-06T07:44:28;3.60;99.90
19968;DHT22;10145;49.152;9.282;2023-04-06T07:46:54;3.80;99.90
19968;DHT22;10145;49.152;9.282;2023-04-06T07:49:20;3.90;99.90
19968;DHT22;10145;49.152;9.282;2023-04-06T07:51:46;4.20;99.90
19968;DHT22;10145;49.152;9.282;2023-04-06T07:54:12;4.30;99.90
19968;DHT22;10145;49.152;9.282;2023-04-06T07:56:37;4.50;99.90
19968;DHT22;10145;49.152;9.282;2023-04-06T07:59:03;4.60;99.90
19968;DHT22;10145;49.152;9.282;2023-04-06T08:01:28;4.70;99.90
19968;DHT22;10145;49.152;9.282;2023-04-06T08:03:55;4.90;99.90
19968;DHT22;10145;49.152;9.282;2023-04-06T08:06:21;4.90;99.90
19968;DHT22;10145;49.152;9.282;2023-04-06T08:08:46;5.10;99.90
19968;DHT22;10145;49.152;9.282;2023-04-06T08:11:12;5.30;99.90
19968;DHT22;10145;49.152;9.282;2023-04-06T08:13:37;5.40;99.90
19968;DHT22;10145;49.152;9.282;2023-04-06T08:16:03;5.50;99.90
19968;DHT22;10145;49.152;9.282;2023-04-06T08:18:29;5.70;99.20
19968;DHT22;10145;49.152;9.282;2023-04-06T08:20:55;5.90;99.40
19968;DHT22;10145;49.152;9.282;2023-04-06T08:23:21;6.10;99.20
19968;DHT22;10145;49.152;9.282;2023-04-06T08:25:46;6.20;99.50
19968;DHT22;10145;49.152;9.282;2023-04-06T08:28:12;6.40;99.40
19968;DHT22;10145;49.152;9.282;2023-04-06T08:30:40;6.60;99.20
19968;DHT22;10145;49.152;9.282;2023-04-06T08:33:06;6.60;98.50
19968;DHT22;10145;49.152;9.282;2023-04-06T08:35:31;6.80;97.30
19968;DHT22;10145;49.152;9.282;2023-04-06T08:37:57;7.00;97.80
19968;DHT22;10145;49.152;9.282;2023-04-06T08:40:23;7.30;97.30
19968;DHT22;10145;49.152;9.282;2023-04-06T08:42:52;7.40;97.50
19968;DHT22;10145;49.152;9.282;2023-04-06T08:45:19;7.50;97.10
19968;DHT22;10145;49.152;9.282;2023-04-06T08:47:49;7.70;96.30
19968;DHT22;10145;49.152;9.282;2023-04-06T08:50:16;7.80;96.20
19968;DHT22;10145;49.152;9.282;2023-04-06T08:52:49;7.90;96.40
19968;DHT22;10145;49.152;9.282;2023-04-06T08:55:15;8.00;96.00
19968;DHT22;10145;49.152;9.282;2023-04-06T08:57:41;8.20;95.80
19968;DHT22;10145;49.152;9.282;2023-04-06T09:00:08;8.30;95.00
19968;DHT22;10145;49.152;9.282;2023-04-06T09:02:43;8.40;94.60
19968;DHT22;10145;49.152;9.282;2023-04-06T09:05:09;8.50;93.30
19968;DHT22;10145;49.152;9.282;2023-04-06T09:07:36;8.60;93.80
19968;DHT22;10145;49.152;9.282;2023-04-06T09:10:03;8.90;92.50
19968;DHT22;10145;49.152;9.282;2023-04-06T09:12:30;9.10;90.80
19968;DHT22;10145;49.152;9.282;2023-04-06T09:15:00;9.20;90.20
19968;DHT22;10145;49.152;9.282;2023-04-06T09:17:28;9.40;90.40
19968;DHT22;10145;49.152;9.282;2023-04-06T09:19:55;9.40;90.00
19968;DHT22;10145;49.152;9.282;2023-04-06T09:22:21;9.60;90.60
19968;DHT22;10145;49.152;9.282;2023-04-06T09:24:49;9.80;90.40
19968;DHT22;10145;49.152;9.282;2023-04-06T09:27:16;9.90;90.40
19968;DHT22;10145;49.152;9.282;2023-04-06T09:29:42;10.10;90.10
19968;DHT22;10145;49.152;9.282;2023-04-06T09:32:09;10.20;90.00
19968;DHT22;10145;49.152;9.282;2023-04-06T09:34:42;10.20;91.00
19968;DHT22;10145;49.152;9.282;2023-04-06T09:37:17;10.30;87.70
19968;DHT22;10145;49.152;9.282;2023-04-06T09:39:44;10.30;88.60
19968;DHT22;10145;49.152;9.282;2023-04-06T09:42:23;10.30;88.80
19968;DHT22;10145;49.152;9.282;2023-04-06T09:44:48;10.40;87.50
19968;DHT22;10145;49.152;9.282;2023-04-06T09:47:15;10.60;88.10
19968;DHT22;10145;49.152;9.282;2023-04-06T09:49:43;10.70;86.00
19968;DHT22;10145;49.152;9.282;2023-04-06T09:52:11;10.80;84.90
19968;DHT22;10145;49.152;9.282;2023-04-06T09:54:38;10.90;81.40
19968;DHT22;10145;49.152;9.282;2023-04-06T09:59:53;11.00;81.10
19968;DHT22;10145;49.152;9.282;2023-04-06T10:02:35;11.10;79.60
19968;DHT22;10145;49.152;9.282;2023-04-06T10:05:09;11.40;80.50
19968;DHT22;10145;49.152;9.282;2023-04-06T10:07:39;11.60;81.10
19968;DHT22;10145;49.152;9.282;2023-04-06T10:10:05;11.50;78.80
19968;DHT22;10145;49.152;9.282;2023-04-06T10:12:32;11.30;77.60
19968;DHT22;10145;49.152;9.282;2023-04-06T10:14:57;11.20;78.80
19968;DHT22;10145;49.152;9.282;2023-04-06T10:17:23;11.40;78.70
19968;DHT22;10145;49.152;9.282;2023-04-06T10:19:51;11.40;78.50
19968;DHT22;10145;49.152;9.282;2023-04-06T10:22:27;11.50;77.70
19968;DHT22;10145;49.152;9.282;2023-04-06T10:24:54;11.60;74.00
19968;DHT22;10145;49.152;9.282;2023-04-06T10:27:29;11.50;77.50
19968;DHT22;10145;49.152;9.282;2023-04-06T10:30:02;11.50;75.80
19968;DHT22;10145;49.152;9.282;2023-04-06T10:32:38;11.60;73.90
19968;DHT22;10145;49.152;9.282;2023-04-06T10:35:11;11.80;69.00
19968;DHT22;10145;49.152;9.282;2023-04-06T10:37:50;11.90;67.20
19968;DHT22;10145;49.152;9.282;2023-04-06T10:40:24;11.60;67.10
19968;DHT22;10145;49.152;9.282;2023-04-06T10:42:52;11.60;67.50
19968;DHT22;10145;49.152;9.282;2023-04-06T10:45:22;11.80;69.60
19968;DHT22;10145;49.152;9.282;2023-04-06T10:47:49;12.00;66.80
19968;DHT22;10145;49.152;9.282;2023-04-06T10:50:16;12.10;65.30
19968;DHT22;10145;49.152;9.282;2023-04-06T10:52:44;12.30;65.40
19968;DHT22;10145;49.152;9.282;2023-04-06T10:55:12;12.40;63.70
19968;DHT22;10145;49.152;9.282;2023-04-06T10:57:38;12.30;64.50
19968;DHT22;10145;49.152;9.282;2023-04-06T11:00:05;12.50;64.60
19968;DHT22;10145;49.152;9.282;2023-04-06T11:02:31;12.80;62.50
19968;DHT22;10145;49.152;9.282;2023-04-06T11:04:58;12.60;64.90
19968;DHT22;10145;49.152;9.282;2023-04-06T11:07:27;12.50;63.00
19968;DHT22;10145;49.152;9.282;2023-04-06T11:09:55;12.50;63.40
19968;DHT22;10145;49.152;9.282;2023-04-06T11:12:26;12.70;66.60
19968;DHT22;10145;49.152;9.282;2023-04-06T11:15:00;12.90;63.80
19968;DHT22;10145;49.152;9.282;2023-04-06T11:17:34;13.20;62.80
19968;DHT22;10145;49.152;9.282;2023-04-06T11:20:01;13.10;64.40
19968;DHT22;10145;49.152;9.282;2023-04-06T11:22:26;13.30;66.30
19968;DHT22;10145;49.152;9.282;2023-04-06T11:24:52;13.50;61.60
19968;DHT22;10145;49.152;9.282;2023-04-06T11:27:19;13.40;60.30
19968;DHT22;10145;49.152;9.282;2023-04-06T11:29:46;13.50;61.90
19968;DHT22;10145;49.152;9.282;2023-04-06T11:32:11;13.90;62.00
19968;DHT22;10145;49.152;9.282;2023-04-06T11:34:47;14.10;59.90
19968;DHT22;10145;49.152;9.282;2023-04-06T11:37:13;14.20;59.30
19968;DHT22;10145;49.152;9.282;2023-04-06T11:39:50;13.90;59.00
19968;DHT22;10145;49.152;9.282;2023-04-06T11:42:23;14.30;59.80
19968;DHT22;10145;49.152;9.282;2023-04-06T11:44:54;14.60;59.20
19968;DHT22;10145;49.152;9.282;2023-04-06T11:47:26;14.60;57.20
19968;DHT22;10145;49.152;9.282;2023-04-06T11:49:52;14.80;55.70
19968;DHT22;10145;49.152;9.282;2023-04-06T11:52:23;15.00;56.40
19968;DHT22;10145;49.152;9.282;2023-04-06T11:54:50;14.90;55.60
19968;DHT22;10145;49.152;9.282;2023-04-06T11:57:16;14.90;55.40
19968;DHT22;10145;49.152;9.282;2023-04-06T11:59:42;14.80;55.90
19968;DHT22;10145;49.152;9.282;2023-04-06T12:02:08;14.70;55.80
19968;DHT22;10145;49.152;9.282;2023-04-06T12:04:33;14.60;54.90
19968;DHT22;10145;49.152;9.282;2023-04-06T12:06:59;14.60;57.00
19968;DHT22;10145;49.152;9.282;2023-04-06T12:09:25;14.60;56.40
19968;DHT22;10145;49.152;9.282;2023-04-06T12:11:51;15.00;54.10
19968;DHT22;10145;49.152;9.282;2023-04-06T12:14:16;15.10;56.80
19968;DHT22;10145;49.152;9.282;2023-04-06T12:16:42;14.90;55.90
19968;DHT22;10145;49.152;9.282;2023-04-06T12:19:07;14.80;55.70
19968;DHT22;10145;49.152;9.282;2023-04-06T12:21:38;14.80;54.80
19968;DHT22;10145;49.152;9.282;2023-04-06T12:24:04;14.70;53.20
19968;DHT22;10145;49.152;9.282;2023-04-06T12:26:31;14.90;53.50
19968;DHT22;10145;49.152;9.282;2023-04-06T12:28:58;14.60;52.80
19968;DHT22;10145;49.152;9.282;2023-04-06T12:31:28;14.60;55.60
19968;DHT22;10145;49.152;9.282;2023-04-06T12:33:53;14.90;54.20
19968;DHT22;10145;49.152;9.282;2023-04-06T12:36:20;15.20;54.80
19968;DHT22;10145;49.152;9.282;2023-04-06T12:38:49;15.20;53.40
19968;DHT22;10145;49.152;9.282;2023-04-06T12:41:19;15.20;54.80
19968;DHT22;10145;49.152;9.282;2023-04-06T12:43:45;15.60;53.40
19968;DHT22;10145;49.152;9.282;2023-04-06T12:46:11;15.80;53.40
19968;DHT22;10145;49.152;9.282;2023-04-06T12:48:38;15.80;51.90
19968;DHT22;10145;49.152;9.282;2023-04-06T12:51:07;15.90;52.20
19968;DHT22;10145;49.152;9.282;2023-04-06T12:53:33;16.40;57.10
19968;DHT22;10145;49.152;9.282;2023-04-06T12:55:59;16.50;51.50
19968;DHT22;10145;49.152;9.282;2023-04-06T12:58:25;16.60;52.90
19968;DHT22;10145;49.152;9.282;2023-04-06T13:00:55;16.40;55.80
19968;DHT22;10145;49.152;9.282;2023-04-06T13:03:22;17.10;52.80
19968;DHT22;10145;49.152;9.282;2023-04-06T13:05:49;17.40;52.20
19968;DHT22;10145;49.152;9.282;2023-04-06T13:08:16;17.40;51.10
19968;DHT22;10145;49.152;9.282;2023-04-06T13:10:47;17.50;53.20
19968;DHT22;10145;49.152;9.282;2023-04-06T13:13:14;17.60;50.80
19968;DHT22;10145;49.152;9.282;2023-04-06T13:15:40;17.40;52.40
19968;DHT22;10145;49.152;9.282;2023-04-06T13:18:06;17.60;52.70
19968;DHT22;10145;49.152;9.282;2023-04-06T13:20:32;17.60;51.70
19968;DHT22;10145;49.152;9.282;2023-04-06T13:22:57;17.50;52.00
19968;DHT22;10145;49.152;9.282;2023-04-06T13:25:23;17.20;51.20
19968;DHT22;10145;49.152;9.282;2023-04-06T13:27:49;16.70;51.70
19968;DHT22;10145;49.152;9.282;2023-04-06T13:30:15;16.20;52.40
19968;DHT22;10145;49.152;9.282;2023-04-06T13:32:41;16.10;51.30
19968;DHT22;10145;49.152;9.282;2023-04-06T13:35:07;16.50;53.20
19968;DHT22;10145;49.152;9.282;2023-04-06T13:37:34;17.20;51.10
19968;DHT22;10145;49.152;9.282;2023-04-06T13:39:59;17.40;49.90
19968;DHT22;10145;49.152;9.282;2023-04-06T13:42:27;17.10;51.90
19968;DHT22;10145;49.152;9.282;2023-04-06T13:44:52;17.30;51.70
19968;DHT22;10145;49.152;9.282;2023-04-06T13:47:19;17.30;53.90
19968;DHT22;10145;49.152;9.282;2023-04-06T13:49:46;17.40;49.20
19968;DHT22;10145;49.152;9.282;2023-04-06T13:52:11;17.10;50.80
19968;DHT22;10145;49.152;9.282;2023-04-06T13:54:37;17.10;50.00
19968;DHT22;10145;49.152;9.282;2023-04-06T13:57:03;17.30;51.90
19968;DHT22;10145;49.152;9.282;2023-04-06T13:59:33;17.80;49.70
19968;DHT22;10145;49.152;9.282;2023-04-06T14:01:59;18.50;49.50
19968;DHT22;10145;49.152;9.282;2023-04-06T14:04:25;18.20;48.40
19968;DHT22;10145;49.152;9.282;2023-04-06T14:06:50;17.90;49.10
19968;DHT22;10145;49.152;9.282;2023-04-06T14:09:15;17.60;49.00
19968;DHT22;10145;49.152;9.282;2023-04-06T14:11:41;17.30;48.70
19968;DHT22;10145;49.152;9.282;2023-04-06T14:14:06;16.70;50.50
19968;DHT22;10145;49.152;9.282;2023-04-06T14:16:32;16.80;50.10
19968;DHT22;10145;49.152;9.282;2023-04-06T14:18:58;17.10;50.00
19968;DHT22;10145;49.152;9.282;2023-04-06T14:21:24;17.10;48.60
19968;DHT22;10145;49.152;9.282;2023-04-06T14:23:49;17.30;49.30
19968;DHT22;10145;49.152;9.282;2023-04-06T14:26:16;18.20;47.90
19968;DHT22;10145;49.152;9.282;2023-04-06T14:28:41;18.90;48.00
19968;DHT22;10145;49.152;9.282;2023-04-06T14:31:14;20.10;48.10
19968;DHT22;10145;49.152;9.282;2023-04-06T14:33:41;21.00;46.80
19968;DHT22;10145;49.152;9.282;2023-04-06T14:36:07;21.20;43.80
19968;DHT22;10145;49.152;9.282;2023-04-06T14:38:33;21.70;44.00
19968;DHT22;10145;49.152;9.282;2023-04-06T14:40:59;22.70;42.00
19968;DHT22;10145;49.152;9.282;2023-04-06T14:43:24;22.30;41.00
19968;DHT22;10145;49.152;9.282;2023-04-06T14:45:50;21.50;45.60
19968;DHT22;10145;49.152;9.282;2023-04-06T14:48:16;22.30;41.30
19968;DHT22;10145;49.152;9.282;2023-04-06T14:50:54;21.40;42.20
19968;DHT22;10145;49.152;9.282;2023-04-06T14:53:21;21.60;41.80
19968;DHT22;10145;49.152;9.282;2023-04-06T14:55:47;21.50;43.00
19968;DHT22;10145;49.152;9.282;2023-04-06T14:58:15;21.50;43.30
19968;DHT22;10145;49.152;9.282;2023-04-06T15:00:40;21.50;47.00
19968;DHT22;10145;49.152;9.282;2023-04-06T15:03:06;20.80;47.00
19968;DHT22;10145;49.152;9.282;2023-04-06T15:05:34;20.90;44.30
19968;DHT22;10145;49.152;9.282;2023-04-06T15:08:00;21.30;44.60
19968;DHT22;10145;49.152;9.282;2023-04-06T15:10:25;20.40;45.40
19968;DHT22;10145;49.152;9.282;2023-04-06T15:12:51;19.70;45.00
19968;DHT22;10145;49.152;9.282;2023-04-06T15:15:17;19.10;46.20
19968;DHT22;10145;49.152;9.282;2023-04-06T15:17:42;18.50;49.10
19968;DHT22;10145;49.152;9.282;2023-04-06T15:20:08;17.80;48.80
19968;DHT22;10145;49.152;9.282;2023-04-06T15:22:34;17.50;48.70
19968;DHT22;10145;49.152;9.282;2023-04-06T15:24:59;17.60;48.70
19968;DHT22;10145;49.152;9.282;2023-04-06T15:27:25;17.40;49.50
19968;DHT22;10145;49.152;9.282;2023-04-06T15:29:50;17.90;48.40